Time;durP1;ratioP1;P1;durP2;ratioP2;P2;SDS_P1;SDS_P2;PMS_P1;PMS_P2;Temp;Humidity;BMP_temperature;BMP_pressure;BME280_temperature;BME280_humidity;BME280_pressure;Samples;Min_cycle;Max_cycle;Signal;HPM_P1;HPM_P2
2021/04/30 00:00:18;;;;;;;17.05;8.33;;;;;;;11.42;76.66;98646.83;1806744;79;21146;-78
2021/04/30 00:02:47;;;;;;;15.63;7.85;;;;;;;11.39;75.80;98656.06;1808037;78;21151;-79
2021/04/30 00:05:15;;;;;;;14.80;7.33;;;;;;;11.34;78.18;98656.23;1787354;78;21150;-83
2021/04/30 00:07:43;;;;;;;18.32;7.80;;;;;;;11.22;77.45;98644.50;1827432;78;21117;-82
2021/04/30 00:10:12;;;;;;;15.45;7.50;;;;;;;11.24;76.01;98651.80;1807788;78;22272;-82
2021/04/30 00:12:39;;;;;;;17.23;7.30;;;;;;;11.18;75.67;98654.61;1817912;78;21192;-81
2021/04/30 00:15:08;;;;;;;16.23;7.47;;;;;;;11.13;75.03;98650.02;1808062;78;21153;-80
2021/04/30 00:17:36;;;;;;;20.12;8.35;;;;;;;11.08;75.71;98655.38;1825640;78;21198;-81
2021/04/30 00:20:04;;;;;;;20.40;8.55;;;;;;;11.04;76.51;98651.19;1814958;78;21157;-81
2021/04/30 00:22:32;;;;;;;16.17;8.08;;;;;;;11.00;76.78;98657.39;1820227;78;21161;-82
2021/04/30 00:24:59;;;;;;;17.98;7.37;;;;;;;10.94;75.85;98651.95;1740352;81;21262;-80
2021/04/30 00:27:27;;;;;;;18.57;7.67;;;;;;;10.88;76.13;98648.25;1742668;82;21320;-82
2021/04/30 00:29:55;;;;;;;15.05;7.55;;;;;;;10.86;75.88;98663.48;1772855;80;21158;-80
2021/04/30 00:32:22;;;;;;;17.02;7.58;;;;;;;10.84;76.37;98660.96;1773798;80;21173;-80
2021/04/30 00:34:50;;;;;;;21.07;8.05;;;;;;;10.82;76.36;98656.23;1749716;82;21293;-82
2021/04/30 00:37:18;;;;;;;16.07;7.53;;;;;;;10.83;76.51;98654.50;1761088;81;21241;-80
2021/04/30 00:39:46;;;;;;;16.85;7.47;;;;;;;10.83;76.90;98657.10;1792489;79;21178;-80
2021/04/30 00:42:16;;;;;;;16.20;7.45;;;;;;;10.80;77.82;98666.29;1781935;79;21211;-81
2021/04/30 00:44:45;;;;;;;15.95;6.78;;;;;;;10.74;77.69;98669.51;1783315;79;21294;-82
2021/04/30 00:47:33;;;;;;;14.43;7.08;;;;;;;10.74;77.53;98667.34;1767512;79;21167;-81
2021/04/30 00:50:10;;;;;;;13.93;6.28;;;;;;;10.72;78.40;98659.61;1778795;79;21157;-80
2021/04/30 00:52:38;;;;;;;15.45;6.65;;;;;;;10.75;77.44;98667.75;1791901;79;21191;-82
2021/04/30 00:55:10;;;;;;;14.38;7.30;;;;;;;10.77;78.13;98664.65;1774940;79;21173;-82
2021/04/30 00:57:41;;;;;;;15.65;6.53;;;;;;;10.77;78.31;98667.70;1790365;80;21614;-81
2021/04/30 01:00:11;;;;;;;19.82;7.80;;;;;;;10.77;78.26;98666.41;1787588;79;21296;-82
2021/04/30 01:02:39;;;;;;;16.87;7.97;;;;;;;10.77;78.07;98662.51;1775604;79;21702;-83
2021/04/30 01:05:11;;;;;;;14.00;7.80;;;;;;;10.78;78.45;98664.19;1789627;79;21170;-81
2021/04/30 01:07:38;;;;;;;15.90;8.13;;;;;;;10.76;77.24;98662.94;1781214;79;21174;-81
2021/04/30 01:10:07;;;;;;;20.55;8.15;;;;;;;10.75;78.88;98663.85;1783054;79;21161;-82
2021/04/30 01:12:35;;;;;;;16.02;7.62;;;;;;;10.74;78.96;98659.53;1795260;79;21180;-79
2021/04/30 01:15:04;;;;;;;17.05;7.92;;;;;;;10.69;78.93;98660.16;1781439;79;21153;-80
2021/04/30 01:17:34;;;;;;;15.43;7.62;;;;;;;10.66;78.47;98661.53;1777875;81;21181;-81
2021/04/30 01:20:05;;;;;;;18.05;8.20;;;;;;;10.65;79.30;98660.70;1795431;79;22260;-81
2021/04/30 01:22:45;;;;;;;19.30;7.83;;;;;;;10.61;78.66;98660.86;1807168;79;21130;-81
2021/04/30 01:25:18;;;;;;;18.40;8.05;;;;;;;10.58;77.49;98662.23;1789402;79;21268;-82
2021/04/30 01:27:46;;;;;;;28.67;8.88;;;;;;;10.51;78.23;98645.55;1797553;79;21199;-83
2021/04/30 01:30:22;;;;;;;14.83;6.95;;;;;;;10.47;80.38;98649.14;1788118;79;21288;-81
2021/04/30 01:32:50;;;;;;;19.40;7.30;;;;;;;10.44;79.93;98651.82;1786533;79;21163;-82
2021/04/30 01:35:31;;;;;;;16.90;7.60;;;;;;;10.42;79.16;98644.98;1791164;79;21189;-83
2021/04/30 01:38:01;;;;;;;19.50;7.28;;;;;;;10.41;78.94;98640.24;1798714;79;21181;-85
2021/04/30 01:40:31;;;;;;;15.80;7.83;;;;;;;10.41;80.68;98649.34;1809061;79;21780;-82
2021/04/30 01:43:13;;;;;;;14.38;6.87;;;;;;;10.43;78.79;98638.45;1798006;79;21696;-84
2021/04/30 01:45:55;;;;;;;16.60;7.03;;;;;;;10.44;79.79;98634.09;1786858;78;21268;-81
2021/04/30 01:48:27;;;;;;;15.48;7.37;;;;;;;10.45;79.03;98636.64;1817323;78;21288;-83
2021/04/30 01:50:57;;;;;;;14.05;6.25;;;;;;;10.46;78.39;98633.12;1746984;82;21278;-81
2021/04/30 01:53:28;;;;;;;20.40;7.45;;;;;;;10.46;80.39;98646.58;1753729;81;21316;-82
2021/04/30 01:55:57;;;;;;;17.20;7.75;;;;;;;10.47;79.58;98649.59;1746506;81;21256;-81
2021/04/30 01:58:25;;;;;;;15.40;7.60;;;;;;;10.50;79.23;98653.38;1747450;82;21586;-81
2021/04/30 02:00:55;;;;;;;15.85;7.22;;;;;;;10.51;79.25;98652.50;1786095;79;21297;-81
2021/04/30 02:03:24;;;;;;;23.00;7.65;;;;;;;10.52;78.78;98646.38;1818427;78;21173;-81
2021/04/30 02:05:52;;;;;;;14.73;7.33;;;;;;;10.56;79.71;98647.98;1815726;79;21293;-82
2021/04/30 02:08:20;;;;;;;17.55;8.40;;;;;;;10.60;78.46;98642.24;1806724;79;21311;-82
2021/04/30 02:10:50;;;;;;;21.62;8.43;;;;;;;10.62;79.34;98646.48;1807876;79;21139;-80
2021/04/30 02:13:20;;;;;;;17.45;7.28;;;;;;;10.69;80.33;98647.16;1810786;79;21309;-80
2021/04/30 02:15:51;;;;;;;17.35;7.42;;;;;;;10.74;80.54;98645.23;1807931;79;21608;-81
2021/04/30 02:18:18;;;;;;;19.12;8.33;;;;;;;10.77;78.52;98644.30;1805137;79;21613;-80
2021/04/30 02:20:46;;;;;;;18.50;8.25;;;;;;;10.79;78.77;98639.91;1809019;79;21167;-79
2021/04/30 02:23:15;;;;;;;17.80;7.67;;;;;;;10.77;81.62;98644.30;1731441;82;21649;-79
2021/04/30 02:25:42;;;;;;;27.93;8.30;;;;;;;10.78;79.49;98648.59;1755618;81;21189;-80
2021/04/30 02:28:10;;;;;;;19.73;7.85;;;;;;;10.78;78.20;98650.73;1729207;81;22316;-80
2021/04/30 02:30:40;;;;;;;18.87;8.10;;;;;;;10.77;78.59;98638.65;1722979;82;21182;-79
2021/04/30 02:33:10;;;;;;;18.82;8.15;;;;;;;10.73;80.25;98631.85;1749394;81;21178;-83
2021/04/30 02:35:42;;;;;;;19.67;8.53;;;;;;;10.69;79.33;98623.76;1749494;81;21955;-81
2021/04/30 02:38:13;;;;;;;17.92;8.03;;;;;;;10.65;80.66;98619.56;1764533;81;21307;-81
2021/04/30 02:40:43;;;;;;;18.75;7.87;;;;;;;10.55;78.82;98616.41;1750903;81;21175;-80
2021/04/30 02:43:15;;;;;;;17.35;7.90;;;;;;;10.50;79.42;98631.29;1737918;82;21165;-81
2021/04/30 02:45:44;;;;;;;20.80;7.10;;;;;;;10.46;82.02;98643.98;1757855;81;21176;-81
2021/04/30 02:48:23;;;;;;;17.25;6.78;;;;;;;10.38;81.37;98646.82;1740356;81;21331;-81
2021/04/30 02:50:44;;;;;;;16.75;7.67;;;;;;;10.31;82.60;98653.97;1754108;81;21165;-80
2021/04/30 02:53:12;;;;;;;14.98;7.30;;;;;;;10.26;82.77;98648.02;1775142;80;21150;-80
2021/04/30 02:55:39;;;;;;;16.87;7.25;;;;;;;10.23;82.94;98647.29;1770186;80;21298;-80
2021/04/30 02:58:07;;;;;;;13.30;7.42;;;;;;;10.22;83.41;98646.88;1752387;81;21319;-80
2021/04/30 03:00:35;;;;;;;17.48;7.20;;;;;;;10.20;83.14;98644.31;1757731;81;21177;-81
2021/04/30 03:03:02;;;;;;;17.02;5.83;;;;;;;10.23;82.56;98652.48;1750132;81;21169;-80
2021/04/30 03:05:31;;;;;;;15.72;5.90;;;;;;;10.27;82.60;98655.39;1764649;81;21179;-79
2021/04/30 03:07:58;;;;;;;12.78;6.03;;;;;;;10.29;82.21;98670.02;1755155;81;21286;-80
2021/04/30 03:10:26;;;;;;;12.35;6.08;;;;;;;10.33;80.99;98680.75;1745468;81;21177;-79
2021/04/30 03:12:53;;;;;;;15.53;6.12;;;;;;;10.36;81.27;98673.30;1742828;81;21141;-80
2021/04/30 03:15:22;;;;;;;17.62;6.70;;;;;;;10.42;80.45;98677.47;1733390;81;21182;-80
2021/04/30 03:17:50;;;;;;;19.73;7.03;;;;;;;10.48;81.61;98685.91;1739990;81;22301;-80
2021/04/30 03:20:18;;;;;;;15.93;7.05;;;;;;;10.54;82.06;98702.64;1750869;81;21195;-80
2021/04/30 03:22:47;;;;;;;14.95;7.17;;;;;;;10.58;82.11;98704.67;1744443;81;21182;-80
2021/04/30 03:25:17;;;;;;;14.75;6.62;;;;;;;10.64;80.79;98703.63;1753709;81;22273;-80
2021/04/30 03:27:45;;;;;;;17.42;7.00;;;;;;;10.66;80.23;98686.23;1740532;81;21161;-81
2021/04/30 03:30:14;;;;;;;21.60;7.42;;;;;;;10.68;81.48;98694.41;1754391;81;21192;-81
2021/04/30 03:32:42;;;;;;;16.42;7.58;;;;;;;10.75;81.92;98702.85;1742313;81;21197;-81
2021/04/30 03:35:15;;;;;;;19.82;8.38;;;;;;;10.79;79.59;98708.35;1743345;81;21173;-81
2021/04/30 03:37:42;;;;;;;16.70;7.80;;;;;;;10.72;83.19;98726.34;1754283;81;21149;-83
2021/04/30 03:40:11;;;;;;;14.60;7.55;;;;;;;10.69;82.19;98704.34;1750065;81;21154;-80
2021/04/30 03:42:38;;;;;;;18.42;7.70;;;;;;;10.69;81.24;98712.99;1732658;83;21248;-80
2021/04/30 03:45:07;;;;;;;19.37;7.85;;;;;;;10.64;81.57;98711.43;1741213;81;22324;-80
2021/04/30 03:47:34;;;;;;;18.23;8.10;;;;;;;10.57;82.77;98711.24;1756018;81;21348;-79
2021/04/30 03:50:02;;;;;;;14.95;7.65;;;;;;;10.58;81.13;98714.23;1739218;81;21173;-81
2021/04/30 03:52:29;;;;;;;20.60;9.18;;;;;;;10.53;81.56;98703.98;1747515;81;21193;-79
2021/04/30 03:54:57;;;;;;;19.27;9.40;;;;;;;10.52;81.09;98712.23;1764049;81;21181;-81
2021/04/30 03:57:24;;;;;;;23.10;9.70;;;;;;;10.52;81.98;98722.63;1755551;81;21117;-81
2021/04/30 03:59:52;;;;;;;20.30;9.05;;;;;;;10.53;81.92;98720.87;1744846;81;21336;-80
2021/04/30 04:02:19;;;;;;;18.20;9.40;;;;;;;10.51;82.82;98731.31;1753999;81;21205;-80
2021/04/30 04:04:46;;;;;;;18.37;8.63;;;;;;;10.55;82.07;98729.48;1742673;81;21151;-79
2021/04/30 04:07:14;;;;;;;18.15;8.73;;;;;;;10.58;82.36;98733.72;1787215;79;21333;-82
2021/04/30 04:09:41;;;;;;;23.87;9.30;;;;;;;10.58;81.56;98737.16;1753724;81;21343;-80
2021/04/30 04:12:09;;;;;;;26.45;10.80;;;;;;;10.59;82.07;98738.88;1707114;84;21196;-80
2021/04/30 04:14:37;;;;;;;22.70;11.40;;;;;;;10.64;81.55;98736.13;1751874;81;21177;-79
2021/04/30 04:17:04;;;;;;;26.02;9.90;;;;;;;10.65;82.88;98733.95;1759340;81;21311;-80
2021/04/30 04:19:33;;;;;;;16.37;8.63;;;;;;;10.70;82.08;98734.63;1753930;81;21187;-80
2021/04/30 04:22:01;;;;;;;22.62;9.43;;;;;;;10.74;81.23;98748.81;1753065;81;21636;-80
2021/04/30 04:24:29;;;;;;;31.93;11.65;;;;;;;10.76;83.13;98764.34;1745040;81;21178;-80
2021/04/30 04:26:56;;;;;;;28.52;11.70;;;;;;;10.77;82.46;98754.81;1740190;81;21178;-80
2021/04/30 04:29:24;;;;;;;23.02;11.35;;;;;;;10.72;82.56;98757.11;1759473;81;21157;-81
2021/04/30 04:31:51;;;;;;;23.57;10.05;;;;;;;10.79;81.70;98757.76;1766736;81;21185;-83
2021/04/30 04:34:18;;;;;;;19.92;9.53;;;;;;;10.80;83.60;98752.94;1757079;81;21181;-80
2021/04/30 04:36:45;;;;;;;23.20;10.88;;;;;;;10.85;83.94;98747.62;1764683;81;21748;-80
2021/04/30 04:39:13;;;;;;;26.42;10.20;;;;;;;10.88;83.50;98747.08;1704118;83;21232;-80
2021/04/30 04:41:40;;;;;;;21.62;10.80;;;;;;;10.92;84.43;98754.30;1735385;81;21232;-79
2021/04/30 04:44:07;;;;;;;21.73;11.68;;;;;;;11.00;84.55;98770.55;1714102;82;21211;-81
2021/04/30 04:46:35;;;;;;;26.27;12.55;;;;;;;11.11;83.71;98774.09;1725770;82;21133;-81
2021/04/30 04:49:03;;;;;;;25.15;12.28;;;;;;;11.16;84.03;98769.59;1733080;82;21196;-79
2021/04/30 04:51:32;;;;;;;18.70;10.78;;;;;;;11.25;84.13;98778.38;1735350;82;21914;-80
2021/04/30 04:54:01;;;;;;;23.10;10.25;;;;;;;11.34;84.17;98785.90;1732931;82;21162;-80
2021/04/30 04:56:28;;;;;;;17.73;9.58;;;;;;;11.42;83.29;98784.77;1721045;82;21192;-81
2021/04/30 04:58:56;;;;;;;16.40;8.63;;;;;;;11.51;83.06;98795.73;1729231;82;21185;-79
2021/04/30 05:01:23;;;;;;;16.48;8.73;;;;;;;11.58;82.80;98797.70;1735112;82;21192;-82
2021/04/30 05:03:50;;;;;;;21.80;8.55;;;;;;;11.65;81.98;98795.72;1736704;82;21180;-81
2021/04/30 05:06:18;;;;;;;19.73;8.03;;;;;;;11.67;82.04;98800.43;1737448;81;21181;-79
2021/04/30 05:08:45;;;;;;;16.23;7.25;;;;;;;11.72;81.55;98805.88;1761489;81;21222;-80
2021/04/30 05:11:13;;;;;;;14.63;6.97;;;;;;;11.73;81.12;98786.73;1810376;79;22287;-79
2021/04/30 05:13:40;;;;;;;16.45;7.50;;;;;;;11.70;83.58;98786.02;1812039;78;21783;-81
2021/04/30 05:16:08;;;;;;;20.50;8.68;;;;;;;11.79;82.69;98777.02;1784983;79;21293;-81
2021/04/30 05:18:35;;;;;;;17.92;7.10;;;;;;;11.84;82.14;98778.56;1810959;79;21777;-80
2021/04/30 05:21:03;;;;;;;13.08;6.97;;;;;;;11.90;83.03;98771.86;1804340;79;21311;-80
2021/04/30 05:23:31;;;;;;;17.30;7.90;;;;;;;11.99;82.94;98776.34;1813489;79;21173;-80
2021/04/30 05:25:58;;;;;;;15.40;7.00;;;;;;;12.08;83.82;98771.66;1794080;79;21303;-80
2021/04/30 05:28:25;;;;;;;17.73;8.00;;;;;;;12.18;83.12;98779.98;1794766;79;21156;-80
2021/04/30 05:30:52;;;;;;;18.35;8.78;;;;;;;12.28;82.61;98787.86;1797154;79;21166;-80
2021/04/30 05:33:20;;;;;;;21.07;10.05;;;;;;;12.31;82.20;98792.11;1792991;79;21173;-79
2021/04/30 05:35:47;;;;;;;20.60;9.18;;;;;;;12.33;83.80;98795.07;1798980;79;21133;-80
2021/04/30 05:38:15;;;;;;;17.07;8.80;;;;;;;12.27;82.91;98794.42;1732738;82;21194;-79
2021/04/30 05:40:42;;;;;;;15.53;7.87;;;;;;;12.30;83.83;98804.30;1754631;81;21159;-82
2021/04/30 05:43:11;;;;;;;17.48;7.95;;;;;;;12.35;81.84;98817.15;1754536;81;21586;-80
2021/04/30 05:45:44;;;;;;;27.73;10.28;;;;;;;12.36;82.47;98814.95;1753412;81;21168;-81
2021/04/30 05:48:11;;;;;;;23.80;9.73;;;;;;;12.38;81.18;98807.09;1763737;81;21192;-80
2021/04/30 05:50:39;;;;;;;17.55;8.73;;;;;;;12.31;83.56;98812.53;1754300;81;21162;-82
2021/04/30 05:53:06;;;;;;;16.00;8.28;;;;;;;12.30;84.78;98807.36;1737305;81;21174;-82
2021/04/30 05:55:34;;;;;;;41.98;13.55;;;;;;;12.34;83.21;98820.22;1745568;81;21216;-81
2021/04/30 05:58:02;;;;;;;432.85;108.80;;;;;;;12.40;82.51;98815.23;1756593;81;21198;-82
2021/04/30 06:00:29;;;;;;;552.47;172.68;;;;;;;12.47;83.45;98795.86;1746113;81;21176;-81
2021/04/30 06:02:57;;;;;;;782.52;300.00;;;;;;;12.61;83.93;98797.08;1775551;79;21492;-80
2021/04/30 06:05:24;;;;;;;208.32;78.72;;;;;;;12.79;84.05;98803.34;1806059;78;21159;-79
2021/04/30 06:07:52;;;;;;;65.75;25.92;;;;;;;12.98;83.99;98804.80;1815942;79;21168;-80
2021/04/30 06:10:19;;;;;;;21.52;11.03;;;;;;;13.14;84.15;98808.48;1816352;79;21169;-80
2021/04/30 06:12:46;;;;;;;14.73;7.97;;;;;;;13.33;83.29;98799.50;1786093;78;21185;-80
2021/04/30 06:15:14;;;;;;;11.80;6.30;;;;;;;13.51;82.69;98808.33;1793153;79;21169;-81
2021/04/30 06:17:42;;;;;;;10.28;6.05;;;;;;;13.62;82.02;98817.02;1799384;79;21615;-82
2021/04/30 06:20:10;;;;;;;14.68;6.42;;;;;;;13.76;81.24;98821.66;1780932;79;21169;-80
2021/04/30 06:22:38;;;;;;;13.03;6.08;;;;;;;13.80;81.45;98825.37;1766235;80;21613;-80
2021/04/30 06:25:06;;;;;;;13.32;6.10;;;;;;;13.82;81.80;98820.92;1754781;81;21637;-80
2021/04/30 06:27:34;;;;;;;13.83;5.60;;;;;;;13.68;82.41;98843.72;1741445;82;21138;-79
2021/04/30 06:30:01;;;;;;;12.37;5.47;;;;;;;13.70;82.19;98837.97;1752037;81;21121;-80
2021/04/30 06:32:28;;;;;;;10.75;6.00;;;;;;;13.67;82.02;98853.79;1748746;81;21172;-80
2021/04/30 06:34:55;;;;;;;13.78;5.85;;;;;;;13.69;81.22;98857.65;1748126;81;21658;-80
2021/04/30 06:37:26;;;;;;;12.43;5.72;;;;;;;13.56;82.15;98879.48;1752462;81;21197;-80
2021/04/30 06:39:54;;;;;;;11.80;5.67;;;;;;;13.58;81.71;98890.72;1744012;81;21143;-80
2021/04/30 06:42:22;;;;;;;10.43;5.60;;;;;;;13.39;83.56;98878.01;1744781;81;21163;-81
2021/04/30 06:44:49;;;;;;;14.75;5.78;;;;;;;13.40;83.71;98870.58;1755824;81;21562;-81
2021/04/30 06:47:17;;;;;;;11.03;6.30;;;;;;;13.51;83.10;98871.02;1744371;81;21206;-81
2021/04/30 06:49:45;;;;;;;14.55;6.12;;;;;;;13.51;83.34;98856.19;1748722;81;21149;-80
2021/04/30 06:52:12;;;;;;;14.18;7.17;;;;;;;13.65;83.78;98863.45;1754986;81;21190;-80
2021/04/30 06:54:40;;;;;;;14.07;6.50;;;;;;;13.77;82.37;98858.17;1747058;81;21173;-80
2021/04/30 06:57:08;;;;;;;13.55;6.33;;;;;;;13.82;83.33;98860.59;1792924;79;22359;-80
2021/04/30 06:59:36;;;;;;;14.45;7.33;;;;;;;13.95;83.10;98860.47;1798185;79;21169;-80
2021/04/30 07:02:04;;;;;;;16.02;7.12;;;;;;;13.99;82.31;98852.05;1780794;79;21177;-81
2021/04/30 07:04:33;;;;;;;13.30;6.85;;;;;;;14.07;81.84;98839.03;1793040;79;21591;-78
2021/04/30 07:07:01;;;;;;;15.23;7.05;;;;;;;14.17;82.10;98837.33;1799693;79;21177;-81
2021/04/30 07:09:28;;;;;;;11.40;6.85;;;;;;;14.28;82.55;98838.99;1790550;79;21421;-80
2021/04/30 07:11:56;;;;;;;16.30;6.50;;;;;;;14.37;82.06;98850.36;1794480;79;21792;-81
2021/04/30 07:14:23;;;;;;;12.25;6.50;;;;;;;14.41;82.93;98848.00;1778922;79;21145;-81
2021/04/30 07:16:52;;;;;;;14.43;6.40;;;;;;;14.55;81.62;98848.69;1792696;79;21190;-82
2021/04/30 07:19:20;;;;;;;16.67;7.00;;;;;;;14.69;80.65;98841.55;1783166;79;21197;-79
2021/04/30 07:21:47;;;;;;;13.75;5.30;;;;;;;14.82;80.83;98844.00;1786945;79;21617;-82
2021/04/30 07:24:15;;;;;;;11.55;5.83;;;;;;;14.90;79.59;98852.77;1781230;79;21149;-80
2021/04/30 07:26:42;;;;;;;11.50;6.12;;;;;;;15.05;79.95;98844.68;1787189;79;21588;-81
2021/04/30 07:29:11;;;;;;;11.83;6.03;;;;;;;15.17;79.18;98835.39;1795174;79;21169;-79
2021/04/30 07:31:38;;;;;;;12.43;6.17;;;;;;;15.29;78.86;98824.32;1791854;79;21605;-80
2021/04/30 07:34:07;;;;;;;13.00;6.85;;;;;;;15.42;78.77;98821.50;1791779;79;21169;-80
2021/04/30 07:36:35;;;;;;;14.18;6.35;;;;;;;15.55;77.98;98830.89;1806782;79;21134;-79
2021/04/30 07:39:05;;;;;;;14.15;6.58;;;;;;;15.71;77.64;98827.88;1795411;79;21149;-80
2021/04/30 07:41:32;;;;;;;12.58;6.05;;;;;;;15.83;77.56;98829.55;1793471;79;21601;-81
2021/04/30 07:43:59;;;;;;;14.80;6.05;;;;;;;15.93;76.58;98823.38;1791599;79;21168;-78
2021/04/30 07:46:27;;;;;;;12.78;5.55;;;;;;;16.05;77.19;98827.98;1786309;79;21151;-80
2021/04/30 07:48:55;;;;;;;9.80;5.83;;;;;;;16.23;77.27;98828.32;1787347;79;21158;-80
2021/04/30 07:51:23;;;;;;;10.25;5.30;;;;;;;16.38;76.53;98837.17;1791785;79;21163;-80
2021/04/30 07:53:50;;;;;;;14.87;6.47;;;;;;;16.57;75.86;98840.13;1786581;79;22199;-80
2021/04/30 07:56:17;;;;;;;14.07;6.15;;;;;;;16.70;76.08;98842.00;1791202;79;21759;-80
2021/04/30 07:58:45;;;;;;;14.98;5.80;;;;;;;16.89;75.87;98840.58;1803805;79;21157;-81
2021/04/30 08:01:13;;;;;;;10.90;5.85;;;;;;;17.04;74.85;98839.34;1786346;79;21724;-81
2021/04/30 08:03:40;;;;;;;14.25;6.20;;;;;;;17.18;74.38;98842.52;1787097;79;21152;-81
2021/04/30 08:06:07;;;;;;;9.28;5.20;;;;;;;17.33;74.10;98833.77;1795155;79;21160;-80
2021/04/30 08:08:37;;;;;;;12.45;5.70;;;;;;;17.46;73.12;98834.73;1753134;80;21169;-79
2021/04/30 08:11:04;;;;;;;11.43;5.70;;;;;;;17.53;71.37;98847.08;1758942;81;21138;-80
2021/04/30 08:13:31;;;;;;;19.80;5.47;;;;;;;17.59;72.07;98849.35;1760520;80;21465;-80
2021/04/30 08:15:59;;;;;;;11.28;4.45;;;;;;;17.66;71.20;98836.22;1761161;80;21183;-80
2021/04/30 08:18:26;;;;;;;13.28;5.05;;;;;;;17.81;71.79;98833.64;1754832;81;21171;-81
2021/04/30 08:20:53;;;;;;;8.55;3.77;;;;;;;17.94;71.07;98829.84;1750587;81;21179;-80
2021/04/30 08:23:21;;;;;;;10.45;4.53;;;;;;;18.11;70.75;98830.16;1751089;80;21138;-80
2021/04/30 08:25:48;;;;;;;8.40;4.10;;;;;;;18.21;70.62;98832.12;1754986;80;21153;-81
2021/04/30 08:28:16;;;;;;;9.78;4.12;;;;;;;18.28;67.90;98826.02;1753489;80;21161;-80
2021/04/30 08:30:43;;;;;;;12.78;4.15;;;;;;;18.43;68.73;98827.72;1751581;81;21163;-81
2021/04/30 08:33:11;;;;;;;8.48;4.50;;;;;;;18.54;67.98;98830.98;1759328;81;21200;-81
2021/04/30 08:35:38;;;;;;;11.20;4.45;;;;;;;18.66;68.40;98828.06;1750763;81;21213;-80
2021/04/30 08:38:06;;;;;;;12.23;5.05;;;;;;;18.83;67.55;98829.20;1754876;81;21132;-82
2021/04/30 08:40:33;;;;;;;8.88;4.15;;;;;;;18.96;65.50;98827.09;1768883;81;21166;-82
2021/04/30 08:43:01;;;;;;;13.08;3.95;;;;;;;19.13;66.65;98822.92;1762979;81;21146;-80
2021/04/30 08:45:29;;;;;;;9.55;3.60;;;;;;;19.30;66.09;98823.16;1757489;81;21276;-83
2021/04/30 08:47:56;;;;;;;8.13;4.08;;;;;;;19.37;63.91;98814.36;1756138;81;21127;-82
2021/04/30 08:50:24;;;;;;;13.20;4.47;;;;;;;19.57;65.25;98811.72;1707145;82;21185;-81
2021/04/30 08:52:51;;;;;;;12.40;4.17;;;;;;;19.70;63.89;98810.45;1725261;82;21307;-83
2021/04/30 08:55:19;;;;;;;10.18;4.10;;;;;;;19.87;63.01;98811.48;1729588;82;21191;-86
2021/04/30 08:57:53;;;;;;;8.28;4.03;;;;;;;20.04;62.09;98815.14;1712780;82;21177;-82
2021/04/30 09:00:20;;;;;;;8.85;4.00;;;;;;;20.17;60.85;98807.20;1729432;82;21255;-82
2021/04/30 09:02:47;;;;;;;9.93;4.12;;;;;;;20.33;57.50;98799.55;1687053;83;21185;-80
2021/04/30 09:05:28;;;;;;;9.33;4.28;;;;;;;20.59;58.08;98806.98;1701669;83;21253;-80
2021/04/30 09:07:59;;;;;;;9.63;3.85;;;;;;;20.83;56.37;98803.06;1743631;81;21154;-80
2021/04/30 09:10:30;;;;;;;10.15;3.87;;;;;;;21.01;57.44;98797.79;1787124;79;21147;-80
2021/04/30 09:13:06;;;;;;;10.93;4.00;;;;;;;21.28;56.64;98790.58;1801189;79;21167;-82
2021/04/30 09:15:35;;;;;;;13.85;4.45;;;;;;;21.35;55.54;98786.05;1794900;78;21306;-81
2021/04/30 09:18:25;;;;;;;9.40;4.37;;;;;;;21.25;53.79;98791.17;1782421;79;21157;-82
2021/04/30 09:20:56;;;;;;;7.85;3.40;;;;;;;21.23;51.53;98786.48;1799148;79;21149;-81
2021/04/30 09:23:46;;;;;;;10.72;4.12;;;;;;;21.32;51.83;98794.20;1759128;79;21161;-82
2021/04/30 09:26:29;;;;;;;11.38;4.10;;;;;;;21.47;51.71;98796.22;1765086;81;21176;-84
2021/04/30 09:29:09;;;;;;;12.45;3.83;;;;;;;21.57;49.24;98805.16;1791583;79;21161;-81
2021/04/30 09:31:41;;;;;;;8.78;3.37;;;;;;;21.57;51.44;98800.34;1803401;79;22271;-85
2021/04/30 09:34:35;;;;;;;16.40;3.47;;;;;;;21.42;50.71;98793.88;1794484;79;21171;-82
2021/04/30 09:37:20;;;;;;;9.05;3.77;;;;;;;21.41;50.61;98790.05;1792540;79;21169;-81
2021/04/30 09:40:01;;;;;;;11.10;3.60;;;;;;;21.50;50.76;98785.40;1801837;79;21147;-81
2021/04/30 09:42:37;;;;;;;11.75;3.70;;;;;;;21.57;50.88;98791.09;1787296;79;21740;-81
2021/04/30 09:45:08;;;;;;;11.73;3.70;;;;;;;21.57;49.73;98775.22;1749389;81;21219;-82
2021/04/30 09:47:39;;;;;;;11.03;3.70;;;;;;;21.50;50.59;98762.92;1790612;79;21161;-83
2021/04/30 09:50:10;;;;;;;5.87;3.05;;;;;;;21.67;51.30;98777.53;1795650;79;21150;-80
2021/04/30 09:52:40;;;;;;;11.88;3.35;;;;;;;21.62;50.77;98781.83;1789367;79;21135;-81
2021/04/30 09:55:13;;;;;;;10.53;3.20;;;;;;;21.59;51.28;98775.46;1797921;79;21196;-81
2021/04/30 09:57:40;;;;;;;9.30;3.62;;;;;;;21.61;51.58;98774.03;1796054;79;21163;-81
2021/04/30 10:00:12;;;;;;;8.55;3.37;;;;;;;21.61;51.58;98774.03;1792032;79;21768;-81
2021/04/30 10:02:40;;;;;;;9.23;3.15;;;;;;;21.54;50.83;98773.63;1801947;79;21161;-81
2021/04/30 10:05:22;;;;;;;8.70;3.12;;;;;;;21.52;49.93;98764.97;1798715;79;21129;-82
2021/04/30 10:07:50;;;;;;;7.15;3.00;;;;;;;21.40;50.10;98782.56;1795590;78;21117;-82
2021/04/30 10:10:22;;;;;;;11.78;3.02;;;;;;;21.45;49.74;98764.60;1808195;78;21629;-81
2021/04/30 10:12:57;;;;;;;6.33;3.00;;;;;;;21.57;49.71;98765.97;1814395;78;21585;-81
2021/04/30 10:15:25;;;;;;;10.25;3.40;;;;;;;21.72;49.41;98758.65;1815489;78;21149;-80
2021/04/30 10:17:59;;;;;;;13.03;3.67;;;;;;;21.91;48.85;98754.95;1817933;78;21630;-81
2021/04/30 10:20:27;;;;;;;8.93;3.52;;;;;;;22.04;49.57;98747.77;1778472;79;21168;-81
2021/04/30 10:22:57;;;;;;;7.45;3.12;;;;;;;22.11;50.18;98754.73;1753054;81;21182;-82
2021/04/30 10:25:26;;;;;;;9.45;3.12;;;;;;;22.15;49.78;98756.66;1745909;81;21185;-81
2021/04/30 10:27:55;;;;;;;6.33;2.98;;;;;;;22.18;49.85;98754.62;1752166;80;21170;-81
2021/04/30 10:30:39;;;;;;;7.72;3.10;;;;;;;22.21;48.79;98757.02;1745802;80;21201;-80
2021/04/30 10:33:27;;;;;;;9.33;3.25;;;;;;;22.13;48.08;98756.77;1739938;80;21173;-81
2021/04/30 10:36:08;;;;;;;6.35;3.30;;;;;;;22.11;49.02;98746.79;1795576;79;21157;-80
2021/04/30 10:38:54;;;;;;;8.10;3.27;;;;;;;22.17;48.35;98752.92;1782776;79;21760;-80
2021/04/30 10:41:36;;;;;;;8.78;3.20;;;;;;;22.15;48.94;98746.91;1789815;79;21676;-81
2021/04/30 10:44:24;;;;;;;9.28;3.50;;;;;;;22.16;49.39;98739.80;1751670;80;21129;-80
2021/04/30 10:46:56;;;;;;;7.92;3.50;;;;;;;22.07;47.90;98741.38;1748229;80;21163;-79
2021/04/30 10:49:24;;;;;;;6.83;3.55;;;;;;;22.02;48.95;98745.72;1745839;81;21172;-80
2021/04/30 10:52:06;;;;;;;9.88;3.40;;;;;;;21.98;49.11;98741.59;1751188;81;21137;-80
2021/04/30 10:54:39;;;;;;;14.43;3.70;;;;;;;21.98;49.09;98757.96;1746115;81;21143;-81
2021/04/30 10:57:18;;;;;;;;;;;;;;;21.99;48.83;98756.52;1748487;81;21142;-80
2021/04/30 10:59:51;;;;;;;8.60;2.98;;;;;;;22.06;47.16;98747.61;1754655;81;20189;-81
2021/04/30 11:02:34;;;;;;;8.28;3.10;;;;;;;22.12;48.01;98733.06;1753351;81;21197;-80
2021/04/30 11:05:17;;;;;;;;;;;;;;;22.12;48.25;98728.60;1749155;81;21638;-81
2021/04/30 11:07:54;;;;;;;9.93;3.37;;;;;;;22.08;47.33;98742.20;1780648;79;20175;-81
2021/04/30 11:10:31;;;;;;;9.23;3.47;;;;;;;22.11;48.81;98737.52;1801924;79;21161;-80
2021/04/30 11:13:17;;;;;;;11.48;3.75;;;;;;;22.06;47.93;98731.73;1772470;79;21653;-81
2021/04/30 11:15:50;;;;;;;8.15;3.27;;;;;;;22.16;48.77;98725.23;1791626;79;21145;-81
2021/04/30 11:18:25;;;;;;;7.08;2.85;;;;;;;22.28;48.61;98725.62;1808319;79;21161;-80
2021/04/30 11:21:06;;;;;;;11.97;2.90;;;;;;;22.36;48.36;98736.93;1795038;79;21175;-80
2021/04/30 11:23:53;;;;;;;7.47;3.20;;;;;;;22.40;47.05;98739.23;1781790;79;21161;-81
2021/04/30 11:26:18;;;;;;;8.53;3.02;;;;;;;22.43;48.18;98733.67;1796345;79;22330;-81
2021/04/30 11:28:57;;;;;;;7.95;2.83;;;;;;;22.44;47.21;98738.02;1808293;79;21268;-81
2021/04/30 11:31:32;;;;;;;7.45;3.15;;;;;;;22.57;48.70;98739.19;1789631;79;21137;-79
2021/04/30 11:34:16;;;;;;;8.85;3.22;;;;;;;22.72;48.05;98729.64;1778896;79;21188;-80
2021/04/30 11:36:54;;;;;;;6.50;2.70;;;;;;;23.10;48.25;98719.92;1800407;79;21597;-80
2021/04/30 11:39:24;;;;;;;8.65;2.47;;;;;;;23.52;45.12;98719.95;1796431;79;21128;-81